createdAt,value
2022-07-30T00:02:39.388Z,70.38
2022-07-30T00:05:27.211Z,71.07
2022-07-30T00:07:54.799Z,70.63
2022-07-30T00:10:23.277Z,70.90
2022-07-30T00:12:51.083Z,71.25
2022-07-30T00:15:39.004Z,71.11
2022-07-30T00:18:06.845Z,71.49
2022-07-30T00:20:34.328Z,71.90
2022-07-30T00:23:04.468Z,71.70
2022-07-30T00:25:32.049Z,71.70
2022-07-30T00:27:59.724Z,71.98
2022-07-30T00:30:27.345Z,71.93
2022-07-30T00:32:54.931Z,71.85
2022-07-30T00:35:22.453Z,72.01
2022-07-30T00:37:49.948Z,72.32
2022-07-30T00:40:17.637Z,72.42
2022-07-30T00:42:47.526Z,72.73
2022-07-30T00:45:17.265Z,72.47
2022-07-30T00:47:46.268Z,72.68
2022-07-30T00:50:15.169Z,72.54
2022-07-30T00:52:43.579Z,72.80
2022-07-30T00:55:15.273Z,73.03
2022-07-30T00:57:43.776Z,72.75
2022-07-30T01:00:17.799Z,73.14
2022-07-30T01:02:45.317Z,73.00
2022-07-30T01:05:14.829Z,73.47
2022-07-30T01:07:42.782Z,73.91
2022-07-30T01:10:17.265Z,74.01
2022-07-30T01:12:46.508Z,74.16
2022-07-30T01:15:14.471Z,73.93
2022-07-30T01:17:42.647Z,74.20
2022-07-30T01:20:16.283Z,74.54
2022-07-30T01:23:09.120Z,74.27
2022-07-30T01:25:53.210Z,74.94
2022-07-30T01:28:27.843Z,74.53
2022-07-30T01:31:17.608Z,74.40
2022-07-30T01:34:06.845Z,75.06
2022-07-30T01:36:58.549Z,75.04
2022-07-30T01:39:47.950Z,75.17
2022-07-30T01:42:37.585Z,75.67
2022-07-30T01:45:28.383Z,76.28
2022-07-30T01:48:21.789Z,76.54
2022-07-30T01:51:12.877Z,76.84
2022-07-30T01:53:46.288Z,76.80
2022-07-30T01:56:16.782Z,76.83
2022-07-30T01:58:49.389Z,77.40
2022-07-30T02:01:21.550Z,77.61
2022-07-30T02:03:49.636Z,77.73
2022-07-30T02:06:23.592Z,79.08
2022-07-30T02:09:01.784Z,78.35
2022-07-30T02:12:02.433Z,78.64
2022-07-30T02:14:39.327Z,78.95
2022-07-30T02:17:19.054Z,78.62
2022-07-30T02:19:51.572Z,79.01
2022-07-30T02:22:23.396Z,79.25
2022-07-30T02:25:17.781Z,79.09
2022-07-30T02:28:09.922Z,79.46
2022-07-30T02:31:00.089Z,80.60
2022-07-30T02:33:50.626Z,79.18
2022-07-30T02:36:42.199Z,79.85
2022-07-30T02:39:10.536Z,79.72
2022-07-30T02:41:40.266Z,80.16
2022-07-30T02:44:10.363Z,80.65
2022-07-30T02:46:43.071Z,80.71
2022-07-30T02:49:55.068Z,80.44
2022-07-30T02:52:43.493Z,80.74
2022-07-30T02:55:13.556Z,80.78
2022-07-30T02:57:43.651Z,81.17
2022-07-30T03:00:17.187Z,81.01
2022-07-30T03:02:46.403Z,81.42
2022-07-30T03:05:18.200Z,81.26
2022-07-30T03:07:46.799Z,81.42
2022-07-30T03:10:15.564Z,81.61
2022-07-30T03:12:46.449Z,82.29
2022-07-30T03:15:14.768Z,81.80
2022-07-30T03:17:49.147Z,81.96
2022-07-30T03:20:18.712Z,83.10
2022-07-30T03:22:51.057Z,82.22
2022-07-30T03:25:24.743Z,82.56
2022-07-30T03:27:54.809Z,82.42
2022-07-30T03:30:23.801Z,82.42
2022-07-30T03:33:13.206Z,82.23
2022-07-30T03:35:43.931Z,82.71
2022-07-30T03:38:15.629Z,82.62
2022-07-30T03:40:44.106Z,83.78
2022-07-30T03:43:32.261Z,82.42
2022-07-30T03:46:02.938Z,82.24
2022-07-30T03:48:35.297Z,82.42
2022-07-30T03:51:06.762Z,82.70
2022-07-30T03:53:34.589Z,82.67
2022-07-30T03:56:38.755Z,82.27
2022-07-30T03:59:09.422Z,82.41
2022-07-30T04:01:44.984Z,82.85
2022-07-30T04:04:34.715Z,82.79
2022-07-30T04:07:02.809Z,83.23
2022-07-30T04:09:30.473Z,83.36
2022-07-30T04:12:06.788Z,83.54
2022-07-30T04:14:42.544Z,84.52
2022-07-30T04:17:19.889Z,83.92
2022-07-30T04:19:53.559Z,83.93
2022-07-30T04:22:28.847Z,83.71
2022-07-30T04:24:57.649Z,84.18
2022-07-30T04:27:29.429Z,84.51
2022-07-30T04:29:57.739Z,84.15
2022-07-30T04:32:28.172Z,84.27
2022-07-30T04:35:50.225Z,84.27
2022-07-30T04:38:26.184Z,84.63
2022-07-30T04:40:53.705Z,84.21
2022-07-30T04:43:21.438Z,84.34
2022-07-30T04:45:50.461Z,84.81
2022-07-30T04:48:17.890Z,84.60
2022-07-30T04:51:09.929Z,84.92
2022-07-30T04:53:38.410Z,84.58
2022-07-30T04:56:07.117Z,84.74
2022-07-30T04:58:41.477Z,84.81
2022-07-30T05:01:11.187Z,84.57
2022-07-30T05:03:40.908Z,84.70
2022-07-30T05:06:09.716Z,85.02
2022-07-30T05:08:39.987Z,84.70
2022-07-30T05:11:15.496Z,85.10
2022-07-30T05:14:00.249Z,84.42
2022-07-30T05:16:30.896Z,84.75
2022-07-30T05:19:00.940Z,84.60
2022-07-30T05:21:37.532Z,85.23
2022-07-30T05:24:05.688Z,85.02
2022-07-30T05:26:39.651Z,84.94
2022-07-30T05:29:09.575Z,84.95
2022-07-30T05:31:50.171Z,85.06
2022-07-30T05:34:19.152Z,85.10
2022-07-30T05:36:47.158Z,84.96
2022-07-30T05:39:17.369Z,85.04
2022-07-30T05:42:03.631Z,84.77
2022-07-30T05:44:39.175Z,84.58
2022-07-30T05:47:06.786Z,84.64
2022-07-30T05:49:37.470Z,84.82
2022-07-30T05:52:10.530Z,84.79
2022-07-30T05:54:41.317Z,85.05
2022-07-30T05:57:30.234Z,85.06
2022-07-30T05:59:58.415Z,84.73
2022-07-30T06:02:44.162Z,84.91
2022-07-30T06:05:41.043Z,84.73
2022-07-30T06:08:08.952Z,84.79
2022-07-30T06:10:40.619Z,85.23
2022-07-30T06:13:11.729Z,84.89
2022-07-30T06:15:39.460Z,84.92
2022-07-30T06:18:07.657Z,85.05
2022-07-30T06:20:52.156Z,85.13
2022-07-30T06:23:31.592Z,84.68
2022-07-30T06:26:31.033Z,85.35
2022-07-30T06:29:18.829Z,85.03
2022-07-30T06:32:06.812Z,84.90
2022-07-30T06:35:04.141Z,85.05
2022-07-30T06:38:06.694Z,85.09
2022-07-30T06:40:45.411Z,84.89
2022-07-30T06:43:25.412Z,84.77
2022-07-30T06:46:31.147Z,84.97
2022-07-30T06:49:19.306Z,85.40
2022-07-30T06:56:59.626Z,86.38
2022-07-30T06:59:56.250Z,85.70
2022-07-30T07:02:31.400Z,85.40
2022-07-30T07:05:09.239Z,85.72
2022-07-30T07:07:42.229Z,85.65
2022-07-30T07:10:15.024Z,85.76
2022-07-30T07:12:58.079Z,86.21
2022-07-30T07:15:36.843Z,86.94
2022-07-30T07:18:08.527Z,86.92
2022-07-30T07:20:38.825Z,86.97
2022-07-30T07:23:12.032Z,87.02
2022-07-30T07:25:41.786Z,86.63
2022-07-30T07:28:11.809Z,87.39
2022-07-30T07:30:42.249Z,86.99
2022-07-30T07:33:10.416Z,87.11
2022-07-30T07:35:49.190Z,87.33
2022-07-30T07:38:23.076Z,87.20
2022-07-30T07:40:51.791Z,87.05
2022-07-30T07:43:19.292Z,87.40
2022-07-30T07:45:46.820Z,87.57
2022-07-30T07:48:14.398Z,87.61
2022-07-30T07:51:10.956Z,87.49
2022-07-30T07:53:38.537Z,87.74
2022-07-30T07:56:08.709Z,87.65
2022-07-30T07:58:38.283Z,87.57
2022-07-30T08:01:09.566Z,87.89
2022-07-30T08:03:56.630Z,87.92
2022-07-30T08:06:43.154Z,87.57
2022-07-30T08:09:43.798Z,87.32
2022-07-30T08:12:27.910Z,87.37
2022-07-30T08:15:16.230Z,87.32
2022-07-30T08:18:12.801Z,87.31
2022-07-30T08:20:51.692Z,87.42
2022-07-30T08:23:25.064Z,87.31
2022-07-30T08:25:52.607Z,87.33
2022-07-30T08:28:35.953Z,87.43
2022-07-30T08:31:07.827Z,87.66
2022-07-30T08:33:35.792Z,87.79
2022-07-30T08:36:09.438Z,87.70
2022-07-30T08:38:38.749Z,87.68
2022-07-30T08:41:07.780Z,87.91
2022-07-30T08:43:36.925Z,88.15
2022-07-30T08:46:10.591Z,87.73
2022-07-30T08:48:52.920Z,88.01
2022-07-30T08:51:22.912Z,88.04
2022-07-30T08:53:53.377Z,87.98
2022-07-30T08:56:21.505Z,88.03
2022-07-30T08:58:50.307Z,87.81
2022-07-30T09:01:17.944Z,88.38
2022-07-30T09:03:45.882Z,88.12
2022-07-30T09:06:15.104Z,87.93
2022-07-30T09:08:43.217Z,88.11
2022-07-30T09:11:11.844Z,87.82
2022-07-30T09:13:48.590Z,87.63
2022-07-30T09:16:26.671Z,87.88
2022-07-30T09:18:57.280Z,88.07
2022-07-30T09:21:28.601Z,87.57
2022-07-30T09:24:28.905Z,87.28
2022-07-30T09:27:14.844Z,87.28
2022-07-30T09:30:01.111Z,86.84
2022-07-30T09:32:55.966Z,86.89
2022-07-30T09:36:01.867Z,86.82
2022-07-30T09:38:52.317Z,86.61
2022-07-30T09:41:55.030Z,86.47
2022-07-30T09:44:27.893Z,86.38
2022-07-30T09:46:58.269Z,86.42
2022-07-30T09:49:30.947Z,86.35
2022-07-30T09:51:58.608Z,86.16
2022-07-30T09:55:02.024Z,86.62
2022-07-30T09:57:31.768Z,86.18
2022-07-30T10:00:24.226Z,86.02
2022-07-30T10:03:33.974Z,85.85
2022-07-30T10:06:44.615Z,85.40
2022-07-30T10:09:27.261Z,85.02
2022-07-30T10:11:59.891Z,84.64
2022-07-30T10:14:34.264Z,84.73
2022-07-30T10:17:10.587Z,84.48
2022-07-30T10:19:44.010Z,83.99
2022-07-30T10:22:47.094Z,83.57
2022-07-30T10:25:49.709Z,83.37
2022-07-30T10:28:41.854Z,83.72
2022-07-30T10:31:48.693Z,83.15
2022-07-30T10:33:58.311Z,82.18
2022-07-30T10:36:26.496Z,81.22
2022-07-30T10:38:55.314Z,81.06
2022-07-30T10:41:54.014Z,80.21
2022-07-30T10:44:33.929Z,80.56
2022-07-30T10:47:07.710Z,80.75
2022-07-30T10:49:41.134Z,80.49
2022-07-30T10:52:12.112Z,80.17
2022-07-30T10:54:42.668Z,80.14
2022-07-30T10:57:15.039Z,80.51
2022-07-30T11:00:09.714Z,80.16
2022-07-30T11:02:37.614Z,80.16
2022-07-30T11:05:45.157Z,78.67
2022-07-30T11:08:42.859Z,78.12
2022-07-30T11:11:59.224Z,78.42
2022-07-30T11:14:10.319Z,78.49
2022-07-30T11:16:40.732Z,77.96
2022-07-30T11:19:56.837Z,77.90
2022-07-30T11:22:29.726Z,77.27
2022-07-30T11:24:58.161Z,77.59
2022-07-30T11:27:41.524Z,77.20
2022-07-30T11:30:18.928Z,77.17
2022-07-30T11:32:48.404Z,76.91
2022-07-30T11:35:23.671Z,77.10
2022-07-30T11:38:04.717Z,76.77
2022-07-30T11:40:56.904Z,76.79
2022-07-30T11:43:34.698Z,76.39
2022-07-30T11:46:10.300Z,75.91
2022-07-30T11:48:43.270Z,75.80
2022-07-30T11:51:12.125Z,75.55
2022-07-30T11:53:39.693Z,75.47
2022-07-30T11:56:09.622Z,75.63
2022-07-30T11:58:41.412Z,75.41
2022-07-30T12:01:14.059Z,74.67
2022-07-30T12:03:43.585Z,74.45
2022-07-30T12:06:19.906Z,74.24
2022-07-30T12:08:51.204Z,74.02
2022-07-30T12:11:21.131Z,73.53
2022-07-30T12:14:00.672Z,73.04
2022-07-30T12:16:30.440Z,73.29
2022-07-30T12:19:06.808Z,72.42
2022-07-30T12:21:37.414Z,73.09
2022-07-30T12:24:07.701Z,73.08
2022-07-30T12:26:36.246Z,73.12
2022-07-30T12:29:10.307Z,73.08
2022-07-30T12:31:40.273Z,72.69
2022-07-30T12:34:24.830Z,73.30
2022-07-30T12:36:53.145Z,73.41
2022-07-30T12:39:23.120Z,72.97
2022-07-30T12:41:52.222Z,73.23
2022-07-30T12:44:38.209Z,74.09
2022-07-30T12:47:19.401Z,73.42
2022-07-30T12:49:49.698Z,73.22
2022-07-30T12:52:54.896Z,73.23
2022-07-30T12:55:33.312Z,72.71
2022-07-30T12:58:08.027Z,72.52
2022-07-30T13:00:52.975Z,72.12
2022-07-30T13:03:29.266Z,72.21
2022-07-30T13:05:57.523Z,72.15
2022-07-30T13:08:48.178Z,71.19
2022-07-30T13:11:16.765Z,71.38
2022-07-30T13:13:44.617Z,71.76
2022-07-30T13:16:12.502Z,71.71
2022-07-30T13:18:40.800Z,70.92
2022-07-30T13:21:09.479Z,70.89
2022-07-30T13:23:40.224Z,71.07
2022-07-30T13:26:09.181Z,71.04
2022-07-30T13:28:36.748Z,70.49
2022-07-30T13:31:04.734Z,70.42
2022-07-30T13:33:32.276Z,69.87
2022-07-30T13:35:59.802Z,69.44
2022-07-30T13:38:28.605Z,69.22
2022-07-30T13:41:01.900Z,68.82
2022-07-30T13:43:33.639Z,68.40
2022-07-30T13:46:05.250Z,67.69
2022-07-30T13:48:33.324Z,67.72
2022-07-30T13:51:01.037Z,67.69
2022-07-30T13:53:29.621Z,66.92
2022-07-30T13:55:59.567Z,66.99
2022-07-30T13:58:28.791Z,66.39
2022-07-30T14:00:58.151Z,66.49
2022-07-30T14:03:25.654Z,66.79
2022-07-30T14:05:53.260Z,66.50
2022-07-30T14:08:20.978Z,66.23
2022-07-30T14:10:48.553Z,66.25
2022-07-30T14:13:21.435Z,66.22
2022-07-30T14:15:49.088Z,65.89
2022-07-30T14:18:17.025Z,66.00
2022-07-30T14:20:48.418Z,66.26
2022-07-30T14:23:16.923Z,66.35
2022-07-30T14:25:44.894Z,66.29
2022-07-30T14:28:12.700Z,66.51
2022-07-30T14:30:41.377Z,66.09
2022-07-30T14:33:08.902Z,66.59
2022-07-30T14:35:36.457Z,66.94
2022-07-30T14:38:04.108Z,67.14
2022-07-30T14:40:33.436Z,67.50
2022-07-30T14:43:01.592Z,67.94
2022-07-30T14:45:29.329Z,68.50
2022-07-30T14:47:57.690Z,69.52
2022-07-30T14:50:25.193Z,69.82
2022-07-30T14:52:52.831Z,70.64
2022-07-30T14:55:20.408Z,70.84
2022-07-30T14:57:48.867Z,71.35
2022-07-30T15:00:16.767Z,71.21
2022-07-30T15:02:44.263Z,71.68
2022-07-30T15:05:12.911Z,71.58
2022-07-30T15:07:43.565Z,71.64
2022-07-30T15:10:11.278Z,71.91
2022-07-30T15:12:38.788Z,71.92
2022-07-30T15:15:08.392Z,71.56
2022-07-30T15:17:38.979Z,71.46
2022-07-30T15:20:09.240Z,71.91
2022-07-30T15:22:36.845Z,71.65
2022-07-30T15:25:05.557Z,71.50
2022-07-30T15:27:34.257Z,71.86
2022-07-30T15:30:02.345Z,71.48
2022-07-30T15:32:29.832Z,71.67
2022-07-30T15:34:58.842Z,71.46
2022-07-30T15:37:26.771Z,71.49
2022-07-30T15:39:54.195Z,71.70
2022-07-30T15:42:22.533Z,71.64
2022-07-30T15:45:14.302Z,71.22
2022-07-30T15:47:37.911Z,71.51
2022-07-30T15:50:09.267Z,71.63
2022-07-30T15:52:37.640Z,72.28
2022-07-30T15:55:06.872Z,72.30
2022-07-30T15:57:34.393Z,72.91
2022-07-30T16:00:02.710Z,72.98
2022-07-30T16:02:40.076Z,73.46
2022-07-30T16:05:13.443Z,74.03
2022-07-30T16:07:43.325Z,74.49
2022-07-30T16:10:10.932Z,74.66
2022-07-30T16:12:39.731Z,75.05
2022-07-30T16:15:09.871Z,75.99
2022-07-30T16:17:38.579Z,75.98
2022-07-30T16:20:09.118Z,76.72
2022-07-30T16:22:39.242Z,76.92
2022-07-30T16:25:08.081Z,77.51
2022-07-30T16:27:37.392Z,77.69
2022-07-30T16:30:06.961Z,77.59
2022-07-30T16:32:35.164Z,78.18
2022-07-30T16:35:03.578Z,78.54
2022-07-30T16:37:31.316Z,78.30
2022-07-30T16:39:59.387Z,78.50
2022-07-30T16:42:27.189Z,78.89
2022-07-30T16:44:55.788Z,79.54
2022-07-30T16:47:23.368Z,79.23
2022-07-30T16:49:50.815Z,79.19
2022-07-30T16:52:18.860Z,79.66
2022-07-30T16:54:46.369Z,79.84
2022-07-30T16:57:14.107Z,80.04
2022-07-30T16:59:42.267Z,79.98
2022-07-30T17:02:11.477Z,80.30
2022-07-30T17:04:40.050Z,80.70
2022-07-30T17:07:07.614Z,80.87
2022-07-30T17:09:36.996Z,80.83
2022-07-30T17:12:07.913Z,81.30
2022-07-30T17:14:43.257Z,81.12
2022-07-30T17:17:14.412Z,81.45
2022-07-30T17:19:43.232Z,81.25
2022-07-30T17:22:10.876Z,81.58
2022-07-30T17:24:38.364Z,81.66
2022-07-30T17:27:05.852Z,81.98
2022-07-30T17:29:33.361Z,82.09
2022-07-30T17:32:01.336Z,82.13
2022-07-30T17:34:29.101Z,82.07
2022-07-30T17:36:56.747Z,82.11
2022-07-30T17:40:27.113Z,82.56
2022-07-30T17:42:12.377Z,82.33
2022-07-30T17:44:41.544Z,82.42
2022-07-30T17:47:14.425Z,82.46
2022-07-30T17:49:44.150Z,82.78
2022-07-30T17:52:11.662Z,82.98
2022-07-30T17:54:39.108Z,82.62
2022-07-30T17:57:07.309Z,82.73
2022-07-30T17:59:34.812Z,82.94
2022-07-30T18:02:04.756Z,82.95
2022-07-30T18:04:32.719Z,82.96
2022-07-30T18:07:00.609Z,83.40
2022-07-30T18:09:28.508Z,83.30
2022-07-30T18:11:56.302Z,83.41
2022-07-30T18:18:02.737Z,83.68
2022-07-30T18:20:50.597Z,83.46
2022-07-30T18:23:19.433Z,84.45
2022-07-30T18:25:57.784Z,84.54
2022-07-30T18:28:48.855Z,84.51
2022-07-30T18:31:17.250Z,84.48
2022-07-30T18:33:45.308Z,84.74
2022-07-30T18:36:12.893Z,84.69
2022-07-30T18:38:40.946Z,84.54
2022-07-30T18:41:08.396Z,84.71
2022-07-30T18:43:55.096Z,85.30
2022-07-30T18:46:30.246Z,84.56
2022-07-30T18:49:34.987Z,85.10
2022-07-30T18:52:40.697Z,85.32
2022-07-30T18:55:11.833Z,84.70
2022-07-30T18:57:41.565Z,84.47
2022-07-30T19:00:35.346Z,85.21
2022-07-30T19:03:03.860Z,84.97
2022-07-30T19:05:32.330Z,85.31
2022-07-30T19:08:09.576Z,85.73
2022-07-30T19:10:37.596Z,85.70
2022-07-30T19:13:05.762Z,85.73
2022-07-30T19:15:33.817Z,85.97
2022-07-30T19:18:01.988Z,85.80
2022-07-30T19:20:29.990Z,85.99
2022-07-30T19:23:05.829Z,85.82
2022-07-30T19:25:34.552Z,85.78
2022-07-30T19:28:05.087Z,85.96
2022-07-30T19:30:36.221Z,85.88
2022-07-30T19:33:13.979Z,85.62
2022-07-30T19:35:42.712Z,85.59
2022-07-30T19:38:11.916Z,85.73
2022-07-30T19:44:19.788Z,86.15
2022-07-30T19:46:48.735Z,86.12
2022-07-30T19:52:55.008Z,85.79
2022-07-30T20:02:35.800Z,86.19
2022-07-30T20:05:10.840Z,86.20
2022-07-30T20:08:18.653Z,86.72
2022-07-30T20:10:52.677Z,86.37
2022-07-30T20:17:38.752Z,87.35
2022-07-30T20:24:11.400Z,87.41
2022-07-30T20:27:42.885Z,87.54
2022-07-30T20:37:22.321Z,87.20
2022-07-30T20:43:54.947Z,87.73
2022-07-30T20:46:42.789Z,87.81
2022-07-30T20:49:13.474Z,87.81
2022-07-30T20:51:41.739Z,88.16
2022-07-30T20:54:09.286Z,88.13
2022-07-30T20:56:36.825Z,87.67
2022-07-30T20:59:04.294Z,88.18
2022-07-30T21:01:31.741Z,88.15
2022-07-30T21:04:29.351Z,88.16
2022-07-30T21:06:56.934Z,87.81
2022-07-30T21:10:07.408Z,88.26
2022-07-30T21:12:36.592Z,87.69
2022-07-30T21:15:26.342Z,88.21
2022-07-30T21:18:23.384Z,88.23
2022-07-30T21:21:07.300Z,88.13
2022-07-30T21:27:29.780Z,87.82
2022-07-30T21:37:08.964Z,87.63
2022-07-30T21:39:56.730Z,87.44
2022-07-30T21:42:36.570Z,87.92
2022-07-30T21:45:19.080Z,88.13
2022-07-30T21:47:48.029Z,88.11
2022-07-30T21:50:16.624Z,88.19
2022-07-30T21:53:06.120Z,88.80
2022-07-30T21:55:53.098Z,88.64
2022-07-30T21:58:48.556Z,89.25
2022-07-30T22:08:00.152Z,88.76
2022-07-30T22:10:28.132Z,88.36
2022-07-30T22:13:01.314Z,88.40
2022-07-30T22:19:10.053Z,88.65
2022-07-30T22:21:37.589Z,88.62
2022-07-30T22:25:06.957Z,89.50
2022-07-30T22:27:56.360Z,89.14
2022-07-30T22:30:27.493Z,88.59
2022-07-30T22:33:18.320Z,88.86
2022-07-30T22:35:49.649Z,88.20
2022-07-30T22:38:19.586Z,88.68
2022-07-30T22:40:47.424Z,88.16
2022-07-30T22:43:16.970Z,88.28
2022-07-30T22:46:14.707Z,88.56
2022-07-30T22:48:42.564Z,87.96
2022-07-30T22:51:11.939Z,88.25
2022-07-30T22:57:05.675Z,88.33
2022-07-30T22:59:58.574Z,88.47
2022-07-30T23:02:29.372Z,88.54
2022-07-30T23:04:58.826Z,88.49
2022-07-30T23:08:01.856Z,88.54
2022-07-30T23:17:43.995Z,88.26
2022-07-30T23:24:02.528Z,88.67
2022-07-30T23:26:30.182Z,88.80
2022-07-30T23:28:57.775Z,88.76
2022-07-30T23:31:26.965Z,89.13
2022-07-30T23:33:54.698Z,89.36
2022-07-30T23:36:22.662Z,88.96
2022-07-30T23:38:50.118Z,88.81
2022-07-30T23:41:29.446Z,87.81
2022-07-30T23:44:46.280Z,86.94
2022-07-30T23:47:49.579Z,86.47
2022-07-30T23:50:14.332Z,86.61
2022-07-30T23:52:42.467Z,86.25
2022-07-30T23:55:10.186Z,86.21
2022-07-30T23:57:39.593Z,86.36
